Wetterdaten: Woche 09.10.06 - 15.10.06 (KW41)
Datum Zeit Temperatur Luftfeuchte Luftdruck Niederschlag Windrichtung Wind
09.10.2006 00:00 6,5 C 95 % 1022 hPa 0,0 l/m N 0,0 km/h (0 Bft)
09.10.2006 01:00 5,7 C 96 % 1023 hPa 0,0 l/m N 0,0 km/h (0 Bft)
09.10.2006 02:00 5,0 C 98 % 1023 hPa 0,0 l/m N 0,0 km/h (0 Bft)
09.10.2006 03:00 4,4 C 99 % 1023 hPa 0,0 l/m N 0,0 km/h (0 Bft)
09.10.2006 04:00 3,8 C 100 % 1023 hPa 0,0 l/m N 0,0 km/h (0 Bft)
09.10.2006 05:00 4,0 C 100 % 1023 hPa 0,0 l/m N 0,0 km/h (0 Bft)
09.10.2006 06:00 3,9 C 100 % 1023 hPa 0,0 l/m N 0,0 km/h (0 Bft)
09.10.2006 07:00 3,4 C 100 % 1023 hPa 0,0 l/m N 0,0 km/h (0 Bft)
09.10.2006 08:00 3,3 C 100 % 1023 hPa 0,0 l/m N 0,0 km/h (0 Bft)
09.10.2006 09:00 5,5 C 100 % 1023 hPa 0,0 l/m O-SO 1,4 km/h (1 Bft)
09.10.2006 10:00 10,0 C 98 % 1024 hPa 0,0 l/m O-SO 7,6 km/h (2 Bft)
09.10.2006 11:00 13,1 C 81 % 1024 hPa 0,0 l/m O-SO 6,9 km/h (2 Bft)
09.10.2006 12:00 15,2 C 72 % 1024 hPa 0,0 l/m O 6,7 km/h (2 Bft)
09.10.2006 13:00 18,2 C 59 % 1023 hPa 0,0 l/m O-SO 8,4 km/h (2 Bft)
09.10.2006 14:00 19,3 C 54 % 1023 hPa 0,0 l/m O-SO 9,6 km/h (2 Bft)
09.10.2006 15:00 19,0 C 53 % 1023 hPa 0,0 l/m O-SO 8,5 km/h (2 Bft)
09.10.2006 16:00 18,3 C 53 % 1022 hPa 0,0 l/m SO 8,8 km/h (2 Bft)
09.10.2006 17:00 17,5 C 62 % 1022 hPa 0,0 l/m SO 3,8 km/h (1 Bft)
09.10.2006 18:00 15,3 C 72 % 1023 hPa 0,0 l/m N 0,0 km/h (0 Bft)
09.10.2006 19:00 12,7 C 81 % 1023 hPa 0,0 l/m N 0,0 km/h (0 Bft)
09.10.2006 20:00 11,2 C 88 % 1023 hPa 0,0 l/m N 0,0 km/h (0 Bft)
09.10.2006 21:00 10,2 C 92 % 1023 hPa 0,0 l/m N 0,0 km/h (0 Bft)
09.10.2006 22:00 9,3 C 95 % 1023 hPa 0,0 l/m N 0,0 km/h (0 Bft)
09.10.2006 23:00 8,6 C 97 % 1023 hPa 0,0 l/m N 0,0 km/h (0 Bft)
10.10.2006 00:00 8,1 C 99 % 1023 hPa 0,0 l/m N 0,0 km/h (0 Bft)
10.10.2006 01:00 7,7 C 100 % 1023 hPa 0,0 l/m N 0,0 km/h (0 Bft)
10.10.2006 02:00 7,1 C 100 % 1023 hPa 0,0 l/m N 0,0 km/h (0 Bft)
10.10.2006 03:00 6,6 C 100 % 1023 hPa 0,0 l/m N 0,0 km/h (0 Bft)
10.10.2006 04:00 6,1 C 100 % 1023 hPa 0,0 l/m N 0,0 km/h (0 Bft)
10.10.2006 05:00 5,8 C 100 % 1023 hPa 0,0 l/m N 0,0 km/h (0 Bft)
10.10.2006 06:00 5,3 C 100 % 1023 hPa 0,0 l/m N 0,0 km/h (0 Bft)
10.10.2006 07:00 4,9 C 100 % 1023 hPa 0,0 l/m N 0,0 km/h (0 Bft)
10.10.2006 08:00 5,5 C 100 % 1023 hPa 0,0 l/m N 0,0 km/h (0 Bft)
10.10.2006 09:00 8,0 C 100 % 1023 hPa 0,0 l/m N 0,0 km/h (0 Bft)
10.10.2006 10:00 10,9 C 98 % 1023 hPa 0,0 l/m N 0,0 km/h (0 Bft)
10.10.2006 11:00 14,1 C 71 % 1023 hPa 0,0 l/m N 0,0 km/h (0 Bft)
10.10.2006 12:00 16,0 C 62 % 1023 hPa 0,0 l/m NO 3,5 km/h (1 Bft)
10.10.2006 13:00 18,6 C 57 % 1022 hPa 0,0 l/m O-NO 3,9 km/h (1 Bft)
10.10.2006 14:00 20,0 C 53 % 1022 hPa 0,0 l/m N 6,1 km/h (2 Bft)
10.10.2006 15:00 19,9 C 52 % 1021 hPa 0,0 l/m N 7,0 km/h (2 Bft)
10.10.2006 16:00 18,8 C 56 % 1021 hPa 0,0 l/m W-NW 6,8 km/h (2 Bft)
10.10.2006 17:00 17,6 C 65 % 1021 hPa 0,0 l/m W-NW 6,7 km/h (2 Bft)
10.10.2006 18:00 16,0 C 73 % 1020 hPa 0,0 l/m W 5,5 km/h (1 Bft)
10.10.2006 19:00 13,9 C 84 % 1021 hPa 0,0 l/m W 4,2 km/h (1 Bft)
10.10.2006 20:00 12,8 C 93 % 1021 hPa 0,0 l/m W-SW 4,8 km/h (1 Bft)
10.10.2006 21:00 11,9 C 95 % 1020 hPa 0,0 l/m W 2,7 km/h (1 Bft)
10.10.2006 22:00 11,5 C 99 % 1020 hPa 0,0 l/m W-SW 0,8 km/h (0 Bft)
10.10.2006 23:00 10,8 C 99 % 1020 hPa 0,0 l/m N 0,0 km/h (0 Bft)
11.10.2006 00:00 10,1 C 100 % 1020 hPa 0,0 l/m N 0,0 km/h (0 Bft)
11.10.2006 01:00 9,4 C 100 % 1019 hPa 0,0 l/m N 0,0 km/h (0 Bft)
11.10.2006 02:00 9,0 C 100 % 1019 hPa 0,0 l/m W-SW 0,3 km/h (0 Bft)
11.10.2006 03:00 8,6 C 100 % 1019 hPa 0,0 l/m N 0,0 km/h (0 Bft)
11.10.2006 04:00 7,8 C 100 % 1018 hPa 0,0 l/m N 0,0 km/h (0 Bft)
11.10.2006 05:00 7,9 C 100 % 1018 hPa 0,0 l/m N 0,0 km/h (0 Bft)
11.10.2006 06:00 7,9 C 100 % 1018 hPa 0,0 l/m N 0,0 km/h (0 Bft)
11.10.2006 07:00 7,5 C 100 % 1018 hPa 0,0 l/m N 0,0 km/h (0 Bft)
11.10.2006 08:00 7,4 C 100 % 1018 hPa 0,0 l/m N 0,0 km/h (0 Bft)
11.10.2006 09:00 7,4 C 100 % 1018 hPa 0,0 l/m N 0,0 km/h (0 Bft)
11.10.2006 10:00 8,3 C 100 % 1018 hPa 0,0 l/m N 0,0 km/h (0 Bft)
11.10.2006 11:00 9,6 C 100 % 1018 hPa 0,0 l/m N 0,0 km/h (0 Bft)
11.10.2006 12:00 10,6 C 100 % 1017 hPa 0,0 l/m N 0,0 km/h (0 Bft)
11.10.2006 13:00 12,4 C 100 % 1017 hPa 0,0 l/m N 0,1 km/h (0 Bft)
11.10.2006 14:00 16,0 C 83 % 1016 hPa 0,0 l/m O 0,1 km/h (0 Bft)
11.10.2006 15:00 17,9 C 73 % 1016 hPa 0,0 l/m N 0,1 km/h (0 Bft)
11.10.2006 16:00 17,4 C 74 % 1016 hPa 0,0 l/m O 0,3 km/h (0 Bft)
11.10.2006 17:00 16,6 C 79 % 1016 hPa 0,0 l/m SO 4,0 km/h (1 Bft)
11.10.2006 18:00 14,9 C 88 % 1016 hPa 0,0 l/m O-SO 5,5 km/h (1 Bft)
11.10.2006 19:00 13,2 C 92 % 1017 hPa 0,0 l/m N 0,0 km/h (0 Bft)
11.10.2006 20:00 11,6 C 95 % 1017 hPa 0,0 l/m N 0,0 km/h (0 Bft)
11.10.2006 21:00 10,8 C 98 % 1017 hPa 0,0 l/m N 0,0 km/h (0 Bft)
11.10.2006 22:00 10,5 C 100 % 1017 hPa 0,0 l/m N 0,0 km/h (0 Bft)
11.10.2006 23:00 10,3 C 100 % 1017 hPa 0,0 l/m N 0,0 km/h (0 Bft)
12.10.2006 00:00 9,9 C 100 % 1018 hPa 0,0 l/m N 0,0 km/h (0 Bft)
12.10.2006 01:00 9,3 C 100 % 1018 hPa 0,0 l/m N 0,0 km/h (0 Bft)
12.10.2006 02:00 8,6 C 100 % 1018 hPa 0,0 l/m N 0,0 km/h (0 Bft)
12.10.2006 03:00 7,8 C 100 % 1018 hPa 0,0 l/m N 0,0 km/h (0 Bft)
12.10.2006 04:00 7,3 C 100 % 1018 hPa 0,0 l/m N 0,0 km/h (0 Bft)
12.10.2006 05:00 6,6 C 100 % 1019 hPa 0,0 l/m N 0,0 km/h (0 Bft)
12.10.2006 06:00 6,0 C 100 % 1019 hPa 0,0 l/m N 0,0 km/h (0 Bft)
12.10.2006 07:00 5,7 C 100 % 1020 hPa 0,0 l/m N 0,0 km/h (0 Bft)
12.10.2006 08:00 5,6 C 100 % 1021 hPa 0,0 l/m N 0,0 km/h (0 Bft)
12.10.2006 09:00 6,7 C 100 % 1021 hPa 0,0 l/m N 0,0 km/h (0 Bft)
12.10.2006 10:00 9,2 C 100 % 1022 hPa 0,0 l/m SO 0,6 km/h (0 Bft)
12.10.2006 11:00 12,4 C 97 % 1022 hPa 0,0 l/m SO 5,4 km/h (1 Bft)
12.10.2006 12:00 14,7 C 80 % 1023 hPa 0,0 l/m SO 3,9 km/h (1 Bft)
12.10.2006 13:00 17,7 C 68 % 1023 hPa 0,0 l/m SO 5,2 km/h (1 Bft)
12.10.2006 14:00 19,8 C 60 % 1023 hPa 0,0 l/m SO 2,3 km/h (1 Bft)
12.10.2006 15:00 20,7 C 50 % 1023 hPa 0,0 l/m N-NW 5,1 km/h (1 Bft)
12.10.2006 16:00 19,5 C 48 % 1023 hPa 0,0 l/m NW 7,3 km/h (2 Bft)
12.10.2006 17:00 18,8 C 55 % 1024 hPa 0,0 l/m N 2,5 km/h (1 Bft)
12.10.2006 18:00 16,2 C 71 % 1024 hPa 0,0 l/m N 0,0 km/h (0 Bft)
12.10.2006 19:00 14,1 C 81 % 1025 hPa 0,0 l/m N 0,0 km/h (0 Bft)
12.10.2006 20:00 13,2 C 87 % 1025 hPa 0,0 l/m W-SW 3,9 km/h (1 Bft)
12.10.2006 21:00 12,7 C 90 % 1026 hPa 0,0 l/m W-SW 3,4 km/h (1 Bft)
12.10.2006 22:00 11,9 C 94 % 1027 hPa 0,0 l/m W-SW 1,7 km/h (1 Bft)
12.10.2006 23:00 11,4 C 96 % 1027 hPa 0,0 l/m W-SW 3,9 km/h (1 Bft)
13.10.2006 00:00 11,0 C 98 % 1027 hPa 0,0 l/m W-SW 0,3 km/h (0 Bft)
13.10.2006 01:00 10,4 C 98 % 1027 hPa 0,0 l/m W-SW 1,0 km/h (0 Bft)
13.10.2006 02:00 10,3 C 100 % 1027 hPa 0,0 l/m W 3,5 km/h (1 Bft)
13.10.2006 03:00 10,2 C 100 % 1027 hPa 0,0 l/m W-SW 2,9 km/h (1 Bft)
13.10.2006 04:00 10,1 C 100 % 1027 hPa 0,0 l/m W 4,1 km/h (1 Bft)
13.10.2006 05:00 10,2 C 100 % 1027 hPa 0,0 l/m W 3,3 km/h (1 Bft)
13.10.2006 06:00 9,9 C 100 % 1027 hPa 0,0 l/m W 1,2 km/h (1 Bft)
13.10.2006 07:00 9,6 C 100 % 1028 hPa 0,0 l/m N 0,0 km/h (0 Bft)
13.10.2006 08:00 9,7 C 100 % 1028 hPa 0,0 l/m N 0,0 km/h (0 Bft)
13.10.2006 09:00 10,3 C 100 % 1028 hPa 0,0 l/m W 0,9 km/h (0 Bft)
13.10.2006 10:00 11,2 C 100 % 1028 hPa 0,0 l/m W-NW 2,4 km/h (1 Bft)
13.10.2006 11:00 12,3 C 100 % 1028 hPa 0,0 l/m NW 6,0 km/h (2 Bft)
13.10.2006 12:00 13,7 C 97 % 1028 hPa 0,0 l/m N-NW 8,4 km/h (2 Bft)
13.10.2006 13:00 16,0 C 82 % 1028 hPa 0,0 l/m N-NW 9,0 km/h (2 Bft)
13.10.2006 14:00 18,0 C 71 % 1027 hPa 0,0 l/m N-NW 10,4 km/h (2 Bft)
13.10.2006 15:00 18,1 C 68 % 1027 hPa 0,0 l/m N-NW 11,7 km/h (2 Bft)
13.10.2006 16:00 17,3 C 72 % 1027 hPa 0,0 l/m NW 11,5 km/h (2 Bft)
13.10.2006 17:00 16,6 C 75 % 1027 hPa 0,0 l/m NW 9,3 km/h (2 Bft)
13.10.2006 18:00 15,6 C 79 % 1027 hPa 0,0 l/m N-NW 2,4 km/h (1 Bft)
13.10.2006 19:00 13,9 C 87 % 1027 hPa 0,0 l/m W-NW 3,9 km/h (1 Bft)
13.10.2006 20:00 13,0 C 92 % 1027 hPa 0,0 l/m W-NW 5,2 km/h (1 Bft)
13.10.2006 21:00 13,4 C 93 % 1027 hPa 0,0 l/m W-NW 7,0 km/h (2 Bft)
13.10.2006 22:00 13,3 C 96 % 1028 hPa 0,0 l/m W-NW 7,1 km/h (2 Bft)
13.10.2006 23:00 12,9 C 97 % 1028 hPa 0,0 l/m NW 7,3 km/h (2 Bft)
14.10.2006 00:00 13,0 C 95 % 1027 hPa 0,0 l/m NW 6,1 km/h (2 Bft)
14.10.2006 01:00 13,2 C 93 % 1027 hPa 0,0 l/m N-NW 4,5 km/h (1 Bft)
14.10.2006 02:00 12,4 C 95 % 1027 hPa 0,0 l/m W-NW 6,2 km/h (2 Bft)
14.10.2006 03:00 12,3 C 97 % 1027 hPa 0,0 l/m W 4,3 km/h (1 Bft)
14.10.2006 04:00 12,1 C 97 % 1026 hPa 0,0 l/m W-NW 5,9 km/h (2 Bft)
14.10.2006 05:00 12,0 C 98 % 1026 hPa 0,0 l/m W-NW 6,6 km/h (2 Bft)
14.10.2006 06:00 12,0 C 99 % 1026 hPa 0,0 l/m N-NW 7,1 km/h (2 Bft)
14.10.2006 07:00 12,1 C 99 % 1026 hPa 0,0 l/m N-NW 7,4 km/h (2 Bft)
14.10.2006 08:00 12,2 C 99 % 1026 hPa 0,0 l/m N-NW 8,6 km/h (2 Bft)
14.10.2006 09:00 12,5 C 96 % 1026 hPa 0,0 l/m N-NW 10,5 km/h (2 Bft)
14.10.2006 10:00 12,8 C 92 % 1026 hPa 0,0 l/m NW 10,7 km/h (2 Bft)
14.10.2006 11:00 13,0 C 91 % 1026 hPa 0,0 l/m N 12,3 km/h (3 Bft)
14.10.2006 12:00 13,3 C 86 % 1026 hPa 0,0 l/m N 12,8 km/h (3 Bft)
14.10.2006 13:00 13,5 C 81 % 1026 hPa 0,0 l/m N 12,4 km/h (3 Bft)
14.10.2006 14:00 13,3 C 82 % 1025 hPa 0,0 l/m N-NO 11,6 km/h (2 Bft)
14.10.2006 15:00 13,1 C 84 % 1025 hPa 0,0 l/m N 9,7 km/h (2 Bft)
14.10.2006 16:00 13,1 C 84 % 1025 hPa 0,0 l/m N 9,5 km/h (2 Bft)
14.10.2006 17:00 13,1 C 85 % 1025 hPa 0,0 l/m N-NW 7,7 km/h (2 Bft)
14.10.2006 18:00 13,2 C 85 % 1025 hPa 0,0 l/m N-NO 7,1 km/h (2 Bft)
14.10.2006 19:00 13,1 C 84 % 1025 hPa 0,0 l/m N 7,5 km/h (2 Bft)
14.10.2006 20:00 12,9 C 86 % 1025 hPa 0,0 l/m N-NW 5,8 km/h (1 Bft)
14.10.2006 21:00 12,6 C 88 % 1025 hPa 0,0 l/m W-NW 6,8 km/h (2 Bft)
14.10.2006 22:00 11,7 C 93 % 1025 hPa 0,0 l/m W-NW 5,8 km/h (2 Bft)
14.10.2006 23:00 11,4 C 94 % 1025 hPa 0,0 l/m W-NW 8,3 km/h (2 Bft)
15.10.2006 00:00 11,1 C 87 % 1025 hPa 0,0 l/m N-NW 10,5 km/h (2 Bft)
15.10.2006 01:00 10,8 C 87 % 1025 hPa 0,0 l/m N-NW 8,7 km/h (2 Bft)
15.10.2006 02:00 10,3 C 88 % 1025 hPa 0,0 l/m N-NW 10,2 km/h (2 Bft)
15.10.2006 03:00 9,8 C 91 % 1025 hPa 0,0 l/m W-NW 7,6 km/h (2 Bft)
15.10.2006 04:00 9,6 C 94 % 1025 hPa 0,0 l/m N-NW 7,9 km/h (2 Bft)
15.10.2006 05:00 9,6 C 89 % 1025 hPa 0,0 l/m N-NO 10,3 km/h (2 Bft)
15.10.2006 06:00 9,4 C 88 % 1025 hPa 0,0 l/m W-NW 10,3 km/h (2 Bft)
15.10.2006 07:00 9,1 C 93 % 1025 hPa 0,0 l/m N-NW 8,8 km/h (2 Bft)
15.10.2006 08:00 8,9 C 96 % 1025 hPa 0,0 l/m NW 9,4 km/h (2 Bft)
15.10.2006 09:00 8,9 C 98 % 1026 hPa 0,0 l/m N-NW 8,7 km/h (2 Bft)
15.10.2006 10:00 9,3 C 97 % 1026 hPa 0,0 l/m N 6,5 km/h (2 Bft)
15.10.2006 11:00 9,9 C 94 % 1026 hPa 0,0 l/m N-NW 7,3 km/h (2 Bft)
15.10.2006 12:00 10,8 C 88 % 1026 hPa 0,0 l/m N-NW 8,4 km/h (2 Bft)
15.10.2006 13:00 11,1 C 82 % 1026 hPa 0,0 l/m N-NW 7,4 km/h (2 Bft)
15.10.2006 14:00 10,8 C 84 % 1026 hPa 0,0 l/m N-NO 6,8 km/h (2 Bft)
15.10.2006 15:00 10,9 C 83 % 1026 hPa 0,0 l/m N-NW 7,3 km/h (2 Bft)
15.10.2006 16:00 11,2 C 81 % 1026 hPa 0,0 l/m NW 5,7 km/h (1 Bft)
15.10.2006 17:00 11,5 C 81 % 1025 hPa 0,0 l/m W-NW 4,5 km/h (1 Bft)
15.10.2006 18:00 10,4 C 87 % 1025 hPa 0,0 l/m W-SW 1,3 km/h (1 Bft)
15.10.2006 19:00 9,1 C 95 % 1026 hPa 0,0 l/m W-SW 2,4 km/h (1 Bft)
15.10.2006 20:00 8,6 C 98 % 1026 hPa 0,0 l/m W-SW 5,2 km/h (1 Bft)
15.10.2006 21:00 8,2 C 99 % 1026 hPa 0,0 l/m W-SW 0,8 km/h (0 Bft)
15.10.2006 22:00 7,6 C 100 % 1026 hPa 0,0 l/m N 0,0 km/h (0 Bft)
15.10.2006 23:00 7,1 C 100 % 1026 hPa 0,0 l/m N 0,0 km/h (0 Bft)
Min-Datum _ 09.10.06 12.10.06 11.10.06 - - 09.10.06
_ Min-Zeit 07:55 15:48 13:49 - - 00:00
Minimum _ 3,1 C 44 % 1016 hPa - - 0,0 km/h (0 Bft)
Max-Datum _ 12.10.06 09.10.06 13.10.06 09.10.06 - 14.10.06
_ Max-Zeit 15:20 03:44 07:49 00:00 - 11:17
Maximum _ 21,1 C 100 % 1028 hPa 0,0 l/m - 21,2 km/h
N (4 Bft)
Durchschnitt _ 11,4 C 89 % 1024 hPa #0,0 l/m NW 3,8 km/h (1 Bft)

Durchschnitt Minimum Temp.11,0 C
Durchschnitt Maximum Temp.11,8 C